sensor_id;sensor_type;location;lat;lon;timestamp;pressure;altitude;pressure_sealevel;temperature;humidity
60212;BME280;46079;48.686;15.598;2023-03-14T00:01:22;98194.06;;;20.37;37.12
60212;BME280;46079;48.686;15.598;2023-03-14T00:03:49;98189.66;;;20.38;37.13
60212;BME280;46079;48.686;15.598;2023-03-14T00:06:14;98172.09;;;20.38;37.19
60212;BME280;46079;48.686;15.598;2023-03-14T00:08:41;98175.53;;;20.39;37.23
60212;BME280;46079;48.686;15.598;2023-03-14T00:11:08;98183.25;;;20.40;37.33
60212;BME280;46079;48.686;15.598;2023-03-14T00:13:34;98168.28;;;20.41;37.19
60212;BME280;46079;48.686;15.598;2023-03-14T00:16:09;98167.47;;;20.40;37.29
60212;BME280;46079;48.686;15.598;2023-03-14T00:18:34;98165.47;;;20.42;37.59
60212;BME280;46079;48.686;15.598;2023-03-14T00:21:01;98159.25;;;20.43;37.16
60212;BME280;46079;48.686;15.598;2023-03-14T00:23:30;98156.63;;;20.43;37.42
60212;BME280;46079;48.686;15.598;2023-03-14T00:26:03;98146.72;;;20.46;37.48
60212;BME280;46079;48.686;15.598;2023-03-14T00:28:29;98149.34;;;20.46;37.57
60212;BME280;46079;48.686;15.598;2023-03-14T00:30:54;98138.84;;;20.46;37.28
60212;BME280;46079;48.686;15.598;2023-03-14T00:33:20;98140.50;;;20.47;37.50
60212;BME280;46079;48.686;15.598;2023-03-14T00:35:56;98136.84;;;20.48;37.62
60212;BME280;46079;48.686;15.598;2023-03-14T00:38:22;98132.41;;;20.48;37.31
60212;BME280;46079;48.686;15.598;2023-03-14T00:40:50;98133.25;;;20.49;37.78
60212;BME280;46079;48.686;15.598;2023-03-14T00:43:15;98127.00;;;20.50;37.59
60212;BME280;46079;48.686;15.598;2023-03-14T00:45:41;98124.16;;;20.51;37.54
60212;BME280;46079;48.686;15.598;2023-03-14T00:48:06;98125.66;;;20.54;37.49
60212;BME280;46079;48.686;15.598;2023-03-14T00:50:32;98118.75;;;20.53;37.59
60212;BME280;46079;48.686;15.598;2023-03-14T00:52:57;98124.84;;;20.53;37.64
60212;BME280;46079;48.686;15.598;2023-03-14T00:55:24;98127.31;;;20.55;37.71
60212;BME280;46079;48.686;15.598;2023-03-14T00:57:49;98108.91;;;20.55;37.78
60212;BME280;46079;48.686;15.598;2023-03-14T01:00:15;98107.09;;;20.55;37.63
60212;BME280;46079;48.686;15.598;2023-03-14T01:02:40;98094.78;;;20.56;37.84
60212;BME280;46079;48.686;15.598;2023-03-14T01:05:06;98095.59;;;20.56;37.83
60212;BME280;46079;48.686;15.598;2023-03-14T01:07:32;98093.78;;;20.57;37.62
60212;BME280;46079;48.686;15.598;2023-03-14T01:09:58;98088.34;;;20.58;37.73
60212;BME280;46079;48.686;15.598;2023-03-14T01:12:23;98075.19;;;20.58;37.63
60212;BME280;46079;48.686;15.598;2023-03-14T01:14:49;98073.38;;;20.59;37.76
60212;BME280;46079;48.686;15.598;2023-03-14T01:17:14;98063.50;;;20.61;37.68
60212;BME280;46079;48.686;15.598;2023-03-14T01:19:39;98062.72;;;20.60;37.74
60212;BME280;46079;48.686;15.598;2023-03-14T01:22:05;98072.22;;;20.61;37.68
60212;BME280;46079;48.686;15.598;2023-03-14T01:24:31;98071.41;;;20.61;37.83
60212;BME280;46079;48.686;15.598;2023-03-14T01:26:56;98065.13;;;20.62;37.63
60212;BME280;46079;48.686;15.598;2023-03-14T01:29:21;98059.06;;;20.61;37.80
60212;BME280;46079;48.686;15.598;2023-03-14T01:31:47;98057.25;;;20.62;37.72
60212;BME280;46079;48.686;15.598;2023-03-14T01:34:12;98049.38;;;20.62;37.94
60212;BME280;46079;48.686;15.598;2023-03-14T01:36:38;98045.78;;;20.63;37.83
60212;BME280;46079;48.686;15.598;2023-03-14T01:39:04;98042.13;;;20.64;38.05
60212;BME280;46079;48.686;15.598;2023-03-14T01:41:31;98045.78;;;20.63;38.15
60212;BME280;46079;48.686;15.598;2023-03-14T01:43:57;98043.13;;;20.63;37.87
60212;BME280;46079;48.686;15.598;2023-03-14T01:57:05;98049.63;;;20.67;38.23
60212;BME280;46079;48.686;15.598;2023-03-14T01:59:32;98045.41;;;20.66;38.05
60212;BME280;46079;48.686;15.598;2023-03-14T02:01:58;98054.09;;;20.67;38.19
60212;BME280;46079;48.686;15.598;2023-03-14T02:04:28;98048.66;;;20.68;38.11
60212;BME280;46079;48.686;15.598;2023-03-14T02:07:12;98053.91;;;20.68;38.18
60212;BME280;46079;48.686;15.598;2023-03-14T02:09:40;98059.16;;;20.68;38.16
60212;BME280;46079;48.686;15.598;2023-03-14T02:12:08;98064.22;;;20.70;38.02
60212;BME280;46079;48.686;15.598;2023-03-14T02:14:36;98054.72;;;20.69;38.05
60212;BME280;46079;48.686;15.598;2023-03-14T02:17:05;98058.97;;;20.70;38.05
60212;BME280;46079;48.686;15.598;2023-03-14T02:22:15;98052.72;;;20.71;37.89
60212;BME280;46079;48.686;15.598;2023-03-14T02:25:08;98049.91;;;20.72;38.05
60212;BME280;46079;48.686;15.598;2023-03-14T02:27:34;98051.53;;;20.73;37.95
60212;BME280;46079;48.686;15.598;2023-03-14T02:32:29;98056.78;;;20.73;37.93
60212;BME280;46079;48.686;15.598;2023-03-14T02:34:57;98053.97;;;20.75;37.95
60212;BME280;46079;48.686;15.598;2023-03-14T02:37:40;98060.03;;;20.75;37.87
60212;BME280;46079;48.686;15.598;2023-03-14T02:40:07;98058.22;;;20.76;37.94
60212;BME280;46079;48.686;15.598;2023-03-14T02:42:33;98064.31;;;20.76;38.07
60212;BME280;46079;48.686;15.598;2023-03-14T02:47:30;98093.22;;;20.76;38.07
60212;BME280;46079;48.686;15.598;2023-03-14T02:50:01;98086.31;;;20.75;38.22
60212;BME280;46079;48.686;15.598;2023-03-14T02:52:27;98089.75;;;20.76;38.06
60212;BME280;46079;48.686;15.598;2023-03-14T02:54:52;98098.47;;;20.76;37.85
60212;BME280;46079;48.686;15.598;2023-03-14T02:57:18;98104.53;;;20.77;38.15
60212;BME280;46079;48.686;15.598;2023-03-14T02:59:43;98110.59;;;20.77;38.11
60212;BME280;46079;48.686;15.598;2023-03-14T03:02:09;98116.66;;;20.78;38.07
60212;BME280;46079;48.686;15.598;2023-03-14T03:04:34;98121.91;;;20.78;37.93
60212;BME280;46079;48.686;15.598;2023-03-14T03:06:59;98135.69;;;20.80;38.15
60212;BME280;46079;48.686;15.598;2023-03-14T03:09:25;98131.63;;;20.77;38.09
60212;BME280;46079;48.686;15.598;2023-03-14T03:11:50;98142.78;;;20.79;38.12
60212;BME280;46079;48.686;15.598;2023-03-14T03:14:16;98139.34;;;20.79;38.07
60212;BME280;46079;48.686;15.598;2023-03-14T03:16:41;98151.63;;;20.78;38.01
60212;BME280;46079;48.686;15.598;2023-03-14T03:19:06;98135.69;;;20.80;38.15
60212;BME280;46079;48.686;15.598;2023-03-14T03:21:32;98144.59;;;20.79;38.13
60212;BME280;46079;48.686;15.598;2023-03-14T03:23:57;98163.78;;;20.79;38.20
60212;BME280;46079;48.686;15.598;2023-03-14T03:26:23;98155.91;;;20.79;38.04
60212;BME280;46079;48.686;15.598;2023-03-14T03:28:50;98177.75;;;20.80;38.08
60212;BME280;46079;48.686;15.598;2023-03-14T03:31:16;98189.88;;;20.81;38.21
60212;BME280;46079;48.686;15.598;2023-03-14T03:33:41;98178.53;;;20.80;38.40
60212;BME280;46079;48.686;15.598;2023-03-14T03:36:08;98193.50;;;20.80;38.12
60212;BME280;46079;48.686;15.598;2023-03-14T03:38:33;98206.44;;;20.81;38.26
60212;BME280;46079;48.686;15.598;2023-03-14T03:41:02;98213.50;;;20.81;38.12
60212;BME280;46079;48.686;15.598;2023-03-14T03:43:28;98203.81;;;20.81;38.32
60212;BME280;46079;48.686;15.598;2023-03-14T03:45:54;98209.06;;;20.81;38.31
60212;BME280;46079;48.686;15.598;2023-03-14T03:48:19;98200.22;;;20.82;38.36
60212;BME280;46079;48.686;15.598;2023-03-14T03:50:46;98192.31;;;20.82;38.24
60212;BME280;46079;48.686;15.598;2023-03-14T03:53:11;98188.88;;;20.82;38.21
60212;BME280;46079;48.686;15.598;2023-03-14T03:55:36;98189.69;;;20.82;38.30
60212;BME280;46079;48.686;15.598;2023-03-14T03:58:02;98192.31;;;20.82;37.96
60212;BME280;46079;48.686;15.598;2023-03-14T04:00:27;98182.78;;;20.81;38.20
60212;BME280;46079;48.686;15.598;2023-03-14T04:02:53;98177.38;;;20.83;38.30
60212;BME280;46079;48.686;15.598;2023-03-14T04:05:18;98187.72;;;20.84;38.38
60212;BME280;46079;48.686;15.598;2023-03-14T04:07:43;98181.00;;;20.82;38.26
60212;BME280;46079;48.686;15.598;2023-03-14T04:10:09;98185.41;;;20.81;38.40
60212;BME280;46079;48.686;15.598;2023-03-14T04:12:34;98176.34;;;20.84;38.37
60212;BME280;46079;48.686;15.598;2023-03-14T04:15:00;98171.94;;;20.84;38.31
60212;BME280;46079;48.686;15.598;2023-03-14T04:17:25;98179.81;;;20.84;38.37
60212;BME280;46079;48.686;15.598;2023-03-14T04:19:51;98179.81;;;20.84;38.24
60212;BME280;46079;48.686;15.598;2023-03-14T04:22:19;98186.88;;;20.84;38.43
60212;BME280;46079;48.686;15.598;2023-03-14T04:24:44;98195.59;;;20.84;38.58
60212;BME280;46079;48.686;15.598;2023-03-14T04:27:09;98196.41;;;20.85;38.55
60212;BME280;46079;48.686;15.598;2023-03-14T04:29:35;98206.09;;;20.84;38.57
60212;BME280;46079;48.686;15.598;2023-03-14T04:32:00;98209.91;;;20.82;38.58
60212;BME280;46079;48.686;15.598;2023-03-14T04:34:26;98206.28;;;20.83;38.38
60212;BME280;46079;48.686;15.598;2023-03-14T04:36:51;98215.59;;;20.85;38.55
60212;BME280;46079;48.686;15.598;2023-03-14T04:39:16;98219.84;;;20.86;38.43
60212;BME280;46079;48.686;15.598;2023-03-14T04:41:42;98228.75;;;20.85;38.29
60212;BME280;46079;48.686;15.598;2023-03-14T04:44:07;98233.00;;;20.86;38.45
60212;BME280;46079;48.686;15.598;2023-03-14T04:46:32;98221.88;;;20.84;38.59
60212;BME280;46079;48.686;15.598;2023-03-14T04:48:58;98224.31;;;20.86;38.44
60212;BME280;46079;48.686;15.598;2023-03-14T04:51:23;98222.47;;;20.86;38.43
60212;BME280;46079;48.686;15.598;2023-03-14T04:53:52;98220.88;;;20.85;38.39
60212;BME280;46079;48.686;15.598;2023-03-14T04:56:18;98204.09;;;20.86;38.63
60212;BME280;46079;48.686;15.598;2023-03-14T04:58:43;98198.03;;;20.86;38.61
60212;BME280;46079;48.686;15.598;2023-03-14T05:01:09;98198.03;;;20.86;38.48
60212;BME280;46079;48.686;15.598;2023-03-14T05:03:35;98213.78;;;20.86;38.50
60212;BME280;46079;48.686;15.598;2023-03-14T05:06:02;98211.16;;;20.86;38.74
60212;BME280;46079;48.686;15.598;2023-03-14T05:08:28;98213.78;;;20.86;38.44
60212;BME280;46079;48.686;15.598;2023-03-14T05:10:55;98214.59;;;20.86;38.54
60212;BME280;46079;48.686;15.598;2023-03-14T05:13:21;98219.84;;;20.86;38.54
60212;BME280;46079;48.686;15.598;2023-03-14T05:15:46;98224.31;;;20.86;38.54
60212;BME280;46079;48.686;15.598;2023-03-14T05:18:11;98210.19;;;20.87;38.31
60212;BME280;46079;48.686;15.598;2023-03-14T05:20:37;98212.97;;;20.85;38.14
60212;BME280;46079;48.686;15.598;2023-03-14T05:23:02;98223.50;;;20.85;38.56
60212;BME280;46079;48.686;15.598;2023-03-14T05:25:27;98228.59;;;20.87;38.47
60212;BME280;46079;48.686;15.598;2023-03-14T05:27:54;98240.88;;;20.86;38.50
60212;BME280;46079;48.686;15.598;2023-03-14T05:30:20;98247.78;;;20.87;38.47
60212;BME280;46079;48.686;15.598;2023-03-14T05:32:47;98253.84;;;20.88;38.62
60212;BME280;46079;48.686;15.598;2023-03-14T05:35:13;98258.31;;;20.87;38.58
60212;BME280;46079;48.686;15.598;2023-03-14T05:37:38;98263.72;;;20.86;38.38
60212;BME280;46079;48.686;15.598;2023-03-14T05:40:05;98278.50;;;20.87;37.93
60212;BME280;46079;48.686;15.598;2023-03-14T05:42:32;98285.28;;;20.81;37.09
60212;BME280;46079;48.686;15.598;2023-03-14T05:44:57;98279.94;;;20.75;36.64
60212;BME280;46079;48.686;15.598;2023-03-14T05:47:23;98274.59;;;20.68;36.25
60212;BME280;46079;48.686;15.598;2023-03-14T05:49:48;98277.31;;;20.60;36.11
60212;BME280;46079;48.686;15.598;2023-03-14T05:52:13;98272.09;;;20.52;35.77
60212;BME280;46079;48.686;15.598;2023-03-14T05:54:39;98284.28;;;20.44;35.68
60212;BME280;46079;48.686;15.598;2023-03-14T05:57:04;98275.47;;;20.37;35.71
60212;BME280;46079;48.686;15.598;2023-03-14T05:59:30;98286.34;;;20.34;35.91
60212;BME280;46079;48.686;15.598;2023-03-14T06:01:55;98290.97;;;20.32;36.83
60212;BME280;46079;48.686;15.598;2023-03-14T06:04:20;98288.97;;;20.34;37.53
60212;BME280;46079;48.686;15.598;2023-03-14T06:06:46;98287.16;;;20.35;37.72
60212;BME280;46079;48.686;15.598;2023-03-14T06:09:11;98305.38;;;20.36;37.99
60212;BME280;46079;48.686;15.598;2023-03-14T06:11:37;98308.66;;;20.38;37.79
60212;BME280;46079;48.686;15.598;2023-03-14T06:14:02;98312.91;;;20.39;37.93
60212;BME280;46079;48.686;15.598;2023-03-14T06:16:27;98304.84;;;20.41;37.78
60212;BME280;46079;48.686;15.598;2023-03-14T06:18:53;98295.97;;;20.42;37.90
60212;BME280;46079;48.686;15.598;2023-03-14T06:21:18;98308.09;;;20.43;37.85
60212;BME280;46079;48.686;15.598;2023-03-14T06:23:45;98306.13;;;20.45;37.78
60212;BME280;46079;48.686;15.598;2023-03-14T06:26:10;98310.41;;;20.46;37.54
60212;BME280;46079;48.686;15.598;2023-03-14T06:28:37;98313.84;;;20.47;37.77
60212;BME280;46079;48.686;15.598;2023-03-14T06:31:03;98305.75;;;20.48;37.68
60212;BME280;46079;48.686;15.598;2023-03-14T06:33:28;98290.84;;;20.49;37.55
60212;BME280;46079;48.686;15.598;2023-03-14T06:35:54;98285.59;;;20.49;37.83
60212;BME280;46079;48.686;15.598;2023-03-14T06:38:19;98297.53;;;20.51;37.70
60212;BME280;46079;48.686;15.598;2023-03-14T06:40:45;98290.47;;;20.52;37.81
60212;BME280;46079;48.686;15.598;2023-03-14T06:43:10;98294.72;;;20.53;37.73
60212;BME280;46079;48.686;15.598;2023-03-14T06:45:36;98289.47;;;20.53;37.67
60212;BME280;46079;48.686;15.598;2023-03-14T06:48:01;98293.75;;;20.54;37.72
60212;BME280;46079;48.686;15.598;2023-03-14T06:50:27;98294.59;;;20.54;37.62
60212;BME280;46079;48.686;15.598;2023-03-14T06:52:53;98283.91;;;20.56;37.49
60212;BME280;46079;48.686;15.598;2023-03-14T06:55:18;98277.66;;;20.57;37.70
60212;BME280;46079;48.686;15.598;2023-03-14T06:57:44;98288.16;;;20.57;37.56
60212;BME280;46079;48.686;15.598;2023-03-14T07:00:11;98287.97;;;20.58;37.49
60212;BME280;46079;48.686;15.598;2023-03-14T07:02:36;98282.72;;;20.58;37.43
60212;BME280;46079;48.686;15.598;2023-03-14T07:05:02;98281.72;;;20.59;37.57
60212;BME280;46079;48.686;15.598;2023-03-14T07:07:28;98280.91;;;20.59;37.48
60212;BME280;46079;48.686;15.598;2023-03-14T07:09:54;98290.44;;;20.60;37.62
60212;BME280;46079;48.686;15.598;2023-03-14T07:12:19;98280.91;;;20.59;37.60
60212;BME280;46079;48.686;15.598;2023-03-14T07:14:45;98287.81;;;20.60;37.43
60212;BME280;46079;48.686;15.598;2023-03-14T07:17:10;98295.69;;;20.60;37.57
60212;BME280;46079;48.686;15.598;2023-03-14T07:19:35;98303.22;;;20.63;37.20
60212;BME280;46079;48.686;15.598;2023-03-14T07:22:01;98308.47;;;20.63;37.51
60212;BME280;46079;48.686;15.598;2023-03-14T07:24:26;98303.22;;;20.63;37.61
60212;BME280;46079;48.686;15.598;2023-03-14T07:26:52;98311.09;;;20.63;37.61
60212;BME280;46079;48.686;15.598;2023-03-14T07:29:17;98310.09;;;20.64;37.58
60212;BME280;46079;48.686;15.598;2023-03-14T07:31:43;98319.59;;;20.65;37.52
60212;BME280;46079;48.686;15.598;2023-03-14T07:34:08;98321.41;;;20.64;37.24
60212;BME280;46079;48.686;15.598;2023-03-14T07:36:34;98321.41;;;20.64;37.55
60212;BME280;46079;48.686;15.598;2023-03-14T07:39:00;98320.59;;;20.64;37.47
60212;BME280;46079;48.686;15.598;2023-03-14T07:41:25;98318.78;;;20.64;37.54
60212;BME280;46079;48.686;15.598;2023-03-14T07:43:51;98342.41;;;20.64;37.40
60212;BME280;46079;48.686;15.598;2023-03-14T07:46:16;98331.91;;;20.64;37.31
60212;BME280;46079;48.686;15.598;2023-03-14T07:48:42;98315.34;;;20.64;37.57
60212;BME280;46079;48.686;15.598;2023-03-14T07:51:08;98298.78;;;20.63;37.52
60212;BME280;46079;48.686;15.598;2023-03-14T07:53:33;98304.84;;;20.64;37.52
60212;BME280;46079;48.686;15.598;2023-03-14T07:55:59;98305.84;;;20.63;37.38
60212;BME280;46079;48.686;15.598;2023-03-14T07:58:24;98303.22;;;20.63;37.56
60212;BME280;46079;48.686;15.598;2023-03-14T08:00:51;98297.97;;;20.63;37.53
60212;BME280;46079;48.686;15.598;2023-03-14T08:03:17;98308.47;;;20.63;37.39
60212;BME280;46079;48.686;15.598;2023-03-14T08:05:43;98304.03;;;20.63;37.57
60212;BME280;46079;48.686;15.598;2023-03-14T08:08:09;98309.28;;;20.63;37.52
60212;BME280;46079;48.686;15.598;2023-03-14T08:10:34;98310.09;;;20.64;37.51
60212;BME280;46079;48.686;15.598;2023-03-14T08:13:00;98297.97;;;20.63;37.47
60212;BME280;46079;48.686;15.598;2023-03-14T08:15:28;98302.41;;;20.62;37.41
60212;BME280;46079;48.686;15.598;2023-03-14T08:17:53;98298.78;;;20.63;37.38
60212;BME280;46079;48.686;15.598;2023-03-14T08:20:24;98301.41;;;20.63;37.42
60212;BME280;46079;48.686;15.598;2023-03-14T08:22:50;98291.06;;;20.62;37.52
60212;BME280;46079;48.686;15.598;2023-03-14T08:25:15;98291.06;;;20.62;37.52
60212;BME280;46079;48.686;15.598;2023-03-14T08:27:42;98286.63;;;20.62;37.41
60212;BME280;46079;48.686;15.598;2023-03-14T08:30:10;98282.19;;;20.63;37.39
60212;BME280;46079;48.686;15.598;2023-03-14T08:32:36;98281.38;;;20.62;37.28
60212;BME280;46079;48.686;15.598;2023-03-14T08:35:02;98280.53;;;20.62;37.68
60212;BME280;46079;48.686;15.598;2023-03-14T08:37:28;98270.88;;;20.62;37.48
60212;BME280;46079;48.686;15.598;2023-03-14T08:39:54;98276.94;;;20.63;37.37
60212;BME280;46079;48.686;15.598;2023-03-14T08:42:19;98286.63;;;20.62;37.49
60212;BME280;46079;48.686;15.598;2023-03-14T08:44:45;98286.81;;;20.61;37.59
60212;BME280;46079;48.686;15.598;2023-03-14T08:47:10;98285.81;;;20.62;37.54
60212;BME280;46079;48.686;15.598;2023-03-14T08:49:36;98289.25;;;20.62;37.47
60212;BME280;46079;48.686;15.598;2023-03-14T08:52:02;98300.75;;;20.61;37.43
60212;BME280;46079;48.686;15.598;2023-03-14T08:54:28;98291.06;;;20.62;37.50
60212;BME280;46079;48.686;15.598;2023-03-14T08:56:54;98285.00;;;20.61;37.38
60212;BME280;46079;48.686;15.598;2023-03-14T08:59:19;98285.00;;;20.61;37.34
60212;BME280;46079;48.686;15.598;2023-03-14T09:01:44;98278.94;;;20.61;37.39
60212;BME280;46079;48.686;15.598;2023-03-14T09:04:10;98269.22;;;20.61;37.31
60212;BME280;46079;48.686;15.598;2023-03-14T09:06:35;98275.28;;;20.62;37.45
60212;BME280;46079;48.686;15.598;2023-03-14T09:09:01;98272.88;;;20.60;37.32
60212;BME280;46079;48.686;15.598;2023-03-14T09:11:26;98270.88;;;20.62;37.69
60212;BME280;46079;48.686;15.598;2023-03-14T09:13:52;98269.06;;;20.63;37.37
60212;BME280;46079;48.686;15.598;2023-03-14T09:16:17;98253.47;;;20.61;37.46
60212;BME280;46079;48.686;15.598;2023-03-14T09:18:43;98253.47;;;20.61;37.42
60212;BME280;46079;48.686;15.598;2023-03-14T09:21:08;98265.78;;;20.61;37.53
60212;BME280;46079;48.686;15.598;2023-03-14T09:23:34;98273.50;;;20.62;37.27
60212;BME280;46079;48.686;15.598;2023-03-14T09:26:00;98284.19;;;20.61;37.36
60212;BME280;46079;48.686;15.598;2023-03-14T09:28:26;98290.25;;;20.61;37.35
60212;BME280;46079;48.686;15.598;2023-03-14T09:30:51;98288.44;;;20.62;37.32
60212;BME280;46079;48.686;15.598;2023-03-14T09:33:18;98286.81;;;20.61;37.41
60212;BME280;46079;48.686;15.598;2023-03-14T09:35:43;98289.44;;;20.61;37.32
60212;BME280;46079;48.686;15.598;2023-03-14T09:38:09;98284.19;;;20.61;37.53
60212;BME280;46079;48.686;15.598;2023-03-14T09:40:36;98283.38;;;20.60;37.40
60212;BME280;46079;48.686;15.598;2023-03-14T09:43:03;98278.94;;;20.61;37.34
60212;BME280;46079;48.686;15.598;2023-03-14T09:45:33;98287.81;;;20.60;37.36
60212;BME280;46079;48.686;15.598;2023-03-14T09:47:59;98288.63;;;20.60;37.40
60212;BME280;46079;48.686;15.598;2023-03-14T09:50:31;98284.19;;;20.61;37.26
60212;BME280;46079;48.686;15.598;2023-03-14T09:53:18;98272.88;;;20.60;37.36
60212;BME280;46079;48.686;15.598;2023-03-14T09:55:49;98277.31;;;20.60;37.28
60212;BME280;46079;48.686;15.598;2023-03-14T09:58:20;98269.41;;;20.60;37.26
60212;BME280;46079;48.686;15.598;2023-03-14T10:00:46;98272.88;;;20.60;37.32
60212;BME280;46079;48.686;15.598;2023-03-14T10:05:38;98269.41;;;20.60;37.34
60212;BME280;46079;48.686;15.598;2023-03-14T10:08:04;98274.69;;;20.60;37.37
60212;BME280;46079;48.686;15.598;2023-03-14T10:10:30;98277.31;;;20.60;37.17
60212;BME280;46079;48.686;15.598;2023-03-14T10:15:37;98274.69;;;20.60;37.23
60212;BME280;46079;48.686;15.598;2023-03-14T10:18:04;98280.91;;;20.59;37.22
60212;BME280;46079;48.686;15.598;2023-03-14T10:20:43;98277.31;;;20.60;37.29
60212;BME280;46079;48.686;15.598;2023-03-14T10:25:40;98270.41;;;20.59;37.26
60212;BME280;46079;48.686;15.598;2023-03-14T10:28:23;98271.41;;;20.58;37.42
60212;BME280;46079;48.686;15.598;2023-03-14T10:30:49;98273.84;;;20.59;37.17
60212;BME280;46079;48.686;15.598;2023-03-14T10:35:43;98269.59;;;20.58;37.24
60212;BME280;46079;48.686;15.598;2023-03-14T10:38:16;98277.31;;;20.60;37.20
60212;BME280;46079;48.686;15.598;2023-03-14T10:40:52;98290.59;;;20.58;37.19
60212;BME280;46079;48.686;15.598;2023-03-14T10:43:23;98279.28;;;20.58;37.11
60212;BME280;46079;48.686;15.598;2023-03-14T10:46:14;98289.78;;;20.58;37.11
60212;BME280;46079;48.686;15.598;2023-03-14T10:48:40;98279.28;;;20.58;37.15
60212;BME280;46079;48.686;15.598;2023-03-14T10:56:24;98275.66;;;20.59;37.22
60212;BME280;46079;48.686;15.598;2023-03-14T10:58:59;98264.34;;;20.58;37.19
60212;BME280;46079;48.686;15.598;2023-03-14T11:15:15;98265.34;;;20.57;36.90
60212;BME280;46079;48.686;15.598;2023-03-14T11:20:52;98285.53;;;20.57;37.30
60212;BME280;46079;48.686;15.598;2023-03-14T11:23:22;98275.19;;;20.55;37.18
60212;BME280;46079;48.686;15.598;2023-03-14T11:28:27;98273.38;;;20.56;37.28
60212;BME280;46079;48.686;15.598;2023-03-14T11:31:04;98282.91;;;20.57;37.22
60212;BME280;46079;48.686;15.598;2023-03-14T11:36:15;98286.53;;;20.56;37.20
60212;BME280;46079;48.686;15.598;2023-03-14T11:38:58;98284.69;;;20.56;37.28
60212;BME280;46079;48.686;15.598;2023-03-14T11:41:39;98280.47;;;20.55;37.24
60212;BME280;46079;48.686;15.598;2023-03-14T11:44:34;98283.91;;;20.56;37.35
60212;BME280;46079;48.686;15.598;2023-03-14T11:47:14;98295.41;;;20.55;37.52
60212;BME280;46079;48.686;15.598;2023-03-14T11:49:47;98290.16;;;20.55;37.23
60212;BME280;46079;48.686;15.598;2023-03-14T11:52:25;98283.09;;;20.55;37.52
60212;BME280;46079;48.686;15.598;2023-03-14T11:54:56;98290.97;;;20.55;37.55
60212;BME280;46079;48.686;15.598;2023-03-14T11:57:24;98291.78;;;20.56;37.39
60212;BME280;46079;48.686;15.598;2023-03-14T12:02:43;98296.22;;;20.55;37.30
60212;BME280;46079;48.686;15.598;2023-03-14T12:11:02;98273.38;;;20.56;37.37
60212;BME280;46079;48.686;15.598;2023-03-14T12:13:36;98271.75;;;20.55;37.58
60212;BME280;46079;48.686;15.598;2023-03-14T12:16:05;98284.91;;;20.55;37.32
60212;BME280;46079;48.686;15.598;2023-03-14T12:18:36;98284.91;;;20.55;37.48
60212;BME280;46079;48.686;15.598;2023-03-14T12:21:08;98277.03;;;20.55;37.29
60212;BME280;46079;48.686;15.598;2023-03-14T12:23:52;98283.25;;;20.54;37.56
60212;BME280;46079;48.686;15.598;2023-03-14T12:26:21;98272.75;;;20.54;37.24
60212;BME280;46079;48.686;15.598;2023-03-14T12:43:01;98275.38;;;20.54;37.22
60212;BME280;46079;48.686;15.598;2023-03-14T12:48:15;98275.38;;;20.54;37.29
60212;BME280;46079;48.686;15.598;2023-03-14T12:50:55;98271.09;;;20.53;37.44
60212;BME280;46079;48.686;15.598;2023-03-14T12:56:56;98265.84;;;20.53;37.49
60212;BME280;46079;48.686;15.598;2023-03-14T12:59:37;98265.84;;;20.53;37.38
60212;BME280;46079;48.686;15.598;2023-03-14T13:04:33;98271.09;;;20.53;37.25
60212;BME280;46079;48.686;15.598;2023-03-14T13:07:01;98270.28;;;20.52;37.42
60212;BME280;46079;48.686;15.598;2023-03-14T13:11:53;98267.81;;;20.51;37.47
60212;BME280;46079;48.686;15.598;2023-03-14T13:14:19;98272.09;;;20.52;37.13
60212;BME280;46079;48.686;15.598;2023-03-14T13:16:46;98271.44;;;20.50;37.28
60212;BME280;46079;48.686;15.598;2023-03-14T13:19:26;98278.31;;;20.51;37.45
60212;BME280;46079;48.686;15.598;2023-03-14T13:22:03;98281.97;;;20.50;37.35
60212;BME280;46079;48.686;15.598;2023-03-14T13:24:33;98279.31;;;20.50;37.46
60212;BME280;46079;48.686;15.598;2023-03-14T13:26:59;98280.34;;;20.49;37.28
60212;BME280;46079;48.686;15.598;2023-03-14T13:29:28;98287.22;;;20.50;37.19
60212;BME280;46079;48.686;15.598;2023-03-14T13:31:56;98292.47;;;20.50;37.27
60212;BME280;46079;48.686;15.598;2023-03-14T13:34:32;98299.69;;;20.48;37.49
60212;BME280;46079;48.686;15.598;2023-03-14T13:36:59;98304.78;;;20.49;37.39
60212;BME280;46079;48.686;15.598;2023-03-14T13:39:27;98306.59;;;20.49;37.22
60212;BME280;46079;48.686;15.598;2023-03-14T13:41:58;98315.09;;;20.51;37.28
60212;BME280;46079;48.686;15.598;2023-03-14T13:44:38;98297.88;;;20.48;37.25
60212;BME280;46079;48.686;15.598;2023-03-14T13:47:09;98296.09;;;20.49;37.60
60212;BME280;46079;48.686;15.598;2023-03-14T13:49:37;98301.34;;;20.49;37.27
60212;BME280;46079;48.686;15.598;2023-03-14T13:52:19;98300.50;;;20.48;37.49
60212;BME280;46079;48.686;15.598;2023-03-14T13:54:46;98306.59;;;20.49;37.22
60212;BME280;46079;48.686;15.598;2023-03-14T13:57:11;98309.22;;;20.49;37.37
60212;BME280;46079;48.686;15.598;2023-03-14T13:59:36;98309.22;;;20.49;37.24
60212;BME280;46079;48.686;15.598;2023-03-14T14:02:13;98311.84;;;20.49;37.44
60212;BME280;46079;48.686;15.598;2023-03-14T14:04:39;98311.00;;;20.48;37.42
60212;BME280;46079;48.686;15.598;2023-03-14T14:07:15;98318.09;;;20.48;37.38
60212;BME280;46079;48.686;15.598;2023-03-14T14:09:47;98311.22;;;20.47;37.28
60212;BME280;46079;48.686;15.598;2023-03-14T14:17:16;98320.72;;;20.48;37.52
60212;BME280;46079;48.686;15.598;2023-03-14T14:19:43;98327.63;;;20.49;37.22
60212;BME280;46079;48.686;15.598;2023-03-14T14:22:10;98325.97;;;20.48;37.52
60212;BME280;46079;48.686;15.598;2023-03-14T14:24:37;98322.53;;;20.47;37.33
60212;BME280;46079;48.686;15.598;2023-03-14T14:27:24;98317.28;;;20.47;37.48